createdAt,value
2017-11-24T00:02:17.709Z,5.57
2017-11-24T00:04:45.577Z,7.03
2017-11-24T00:07:13.452Z,9.77
2017-11-24T00:09:41.311Z,5.85
2017-11-24T00:12:09.178Z,5.50
2017-11-24T00:14:37.047Z,4.60
2017-11-24T00:17:04.913Z,6.37
2017-11-24T00:19:32.784Z,5.60
2017-11-24T00:22:00.648Z,8.55
2017-11-24T00:24:28.514Z,7.65
2017-11-24T00:26:56.383Z,9.95
2017-11-24T00:29:24.249Z,5.60
2017-11-24T00:31:52.116Z,16.42
2017-11-24T00:34:19.984Z,9.52
2017-11-24T00:36:47.852Z,9.40
2017-11-24T00:39:15.717Z,7.32
2017-11-24T00:41:43.586Z,6.20
2017-11-24T00:44:11.453Z,8.30
2017-11-24T00:46:39.322Z,7.05
2017-11-24T00:49:07.207Z,9.60
2017-11-24T00:51:35.055Z,7.37
2017-11-24T00:54:02.923Z,10.38
2017-11-24T00:56:30.790Z,10.07
2017-11-24T00:58:58.660Z,6.07
2017-11-24T01:01:26.525Z,8.30
2017-11-24T01:03:54.495Z,7.00
2017-11-24T01:08:56.375Z,10.88
2017-11-24T01:11:24.244Z,9.77
2017-11-24T01:13:52.112Z,10.48
2017-11-24T01:16:19.976Z,8.02
2017-11-24T01:18:47.945Z,8.38
2017-11-24T01:21:15.812Z,13.20
2017-11-24T01:23:43.679Z,9.05
2017-11-24T01:26:11.547Z,17.98
2017-11-24T01:28:39.415Z,20.75
2017-11-24T01:31:07.283Z,8.45
2017-11-24T01:33:35.149Z,8.05
2017-11-24T01:36:03.016Z,6.75
2017-11-24T01:38:30.884Z,11.60
2017-11-24T01:40:58.751Z,10.10
2017-11-24T01:43:26.618Z,7.18
2017-11-24T01:45:54.486Z,8.30
2017-11-24T01:48:22.352Z,9.05
2017-11-24T01:50:50.221Z,7.40
2017-11-24T01:53:18.019Z,7.75
2017-11-24T01:55:46.671Z,9.13
2017-11-24T01:58:14.539Z,6.68
2017-11-24T02:00:42.509Z,8.80
2017-11-24T02:03:10.478Z,12.35
2017-11-24T02:05:38.346Z,8.95
2017-11-24T02:08:06.212Z,11.12
2017-11-24T02:10:34.111Z,7.28
2017-11-24T02:13:01.947Z,6.65
2017-11-24T02:15:29.815Z,7.37
2017-11-24T02:17:57.683Z,7.05
2017-11-24T02:20:25.550Z,8.18
2017-11-24T02:22:53.520Z,5.97
2017-11-24T02:25:21.489Z,11.43
2017-11-24T02:27:49.458Z,8.30
2017-11-24T02:30:17.334Z,11.45
2017-11-24T02:32:45.298Z,7.87
2017-11-24T02:35:13.266Z,8.00
2017-11-24T02:37:41.241Z,8.80
2017-11-24T02:40:09.108Z,13.13
2017-11-24T02:42:36.969Z,14.90
2017-11-24T02:45:04.839Z,8.38
2017-11-24T02:47:32.710Z,7.03
2017-11-24T02:50:00.783Z,8.77
2017-11-24T02:52:28.757Z,12.00
2017-11-24T02:54:56.726Z,10.82
2017-11-24T02:57:24.686Z,16.00
2017-11-24T02:59:52.553Z,9.60
2017-11-24T03:02:20.421Z,7.85
2017-11-24T03:04:48.492Z,8.25
2017-11-24T03:07:16.361Z,7.65
2017-11-24T03:09:44.227Z,9.77
2017-11-24T03:12:12.094Z,8.02
2017-11-24T03:14:39.961Z,7.40
2017-11-24T03:17:07.828Z,8.63
2017-11-24T03:19:35.696Z,8.40
2017-11-24T03:22:03.563Z,9.05
2017-11-24T03:24:31.432Z,8.85
2017-11-24T03:26:59.283Z,12.80
2017-11-24T03:29:27.166Z,8.98
2017-11-24T03:31:55.033Z,12.18
2017-11-24T03:34:22.901Z,7.90
2017-11-24T03:36:50.768Z,10.98
2017-11-24T03:39:18.636Z,14.35
2017-11-24T03:41:46.501Z,8.23
2017-11-24T03:44:14.369Z,6.85
2017-11-24T03:46:42.237Z,9.45
2017-11-24T03:49:10.104Z,12.37
2017-11-24T03:51:37.970Z,7.45
2017-11-24T03:54:05.813Z,10.27
2017-11-24T03:56:33.706Z,9.20
2017-11-24T03:59:01.574Z,10.80
2017-11-24T04:01:29.441Z,7.60
2017-11-24T04:03:57.310Z,7.18
2017-11-24T04:06:25.278Z,14.32
2017-11-24T04:08:53.158Z,8.23
2017-11-24T04:11:21.831Z,10.25
2017-11-24T04:13:49.700Z,14.55
2017-11-24T04:16:17.566Z,13.88
2017-11-24T04:18:45.433Z,8.30
2017-11-24T04:21:13.301Z,7.87
2017-11-24T04:23:41.270Z,8.38
2017-11-24T04:26:09.137Z,6.12
2017-11-24T04:28:37.005Z,7.78
2017-11-24T04:31:04.872Z,6.97
2017-11-24T04:33:32.749Z,12.05
2017-11-24T04:36:00.608Z,6.25
2017-11-24T04:38:28.472Z,7.35
2017-11-24T04:40:56.343Z,7.93
2017-11-24T04:43:24.209Z,6.50
2017-11-24T04:45:52.079Z,8.30
2017-11-24T04:48:19.944Z,5.00
2017-11-24T04:50:47.813Z,7.22
2017-11-24T04:53:15.681Z,8.30
2017-11-24T04:55:43.549Z,5.68
2017-11-24T04:58:11.420Z,6.93
2017-11-24T05:00:39.279Z,10.52
2017-11-24T05:03:07.148Z,8.68
2017-11-24T05:05:35.015Z,8.05
2017-11-24T05:08:02.883Z,9.63
2017-11-24T05:10:30.750Z,9.10
2017-11-24T05:12:58.620Z,14.43
2017-11-24T05:15:26.492Z,8.88
2017-11-24T05:17:55.814Z,7.43
2017-11-24T05:20:26.243Z,7.15
2017-11-24T05:22:54.081Z,8.60
2017-11-24T05:25:21.948Z,10.73
2017-11-24T05:27:49.814Z,8.07
2017-11-24T05:30:17.732Z,6.25
2017-11-24T05:32:45.550Z,14.32
2017-11-24T05:35:13.417Z,11.00
2017-11-24T05:37:41.283Z,7.10
2017-11-24T05:40:09.083Z,9.32
2017-11-24T05:42:37.735Z,8.18
2017-11-24T05:45:05.603Z,10.50
2017-11-24T05:47:33.375Z,8.88
2017-11-24T05:50:01.241Z,6.90
2017-11-24T05:52:29.107Z,10.52
2017-11-24T05:54:56.971Z,9.07
2017-11-24T05:57:24.837Z,9.63
2017-11-24T05:59:52.710Z,8.65
2017-11-24T06:02:20.581Z,10.13
2017-11-24T06:04:48.442Z,7.85
2017-11-24T06:07:16.412Z,10.13
2017-11-24T06:09:44.281Z,10.90
2017-11-24T06:12:12.142Z,8.60
2017-11-24T06:14:40.010Z,10.80
2017-11-24T06:17:07.877Z,13.00
2017-11-24T06:19:35.847Z,14.05
2017-11-24T06:22:03.719Z,10.00
2017-11-24T06:24:31.583Z,8.52
2017-11-24T06:26:59.454Z,11.60
2017-11-24T06:29:27.316Z,6.93
2017-11-24T06:31:55.184Z,13.90
2017-11-24T06:34:23.051Z,9.70
2017-11-24T06:36:50.918Z,11.48
2017-11-24T06:39:18.790Z,9.77
2017-11-24T06:41:46.654Z,10.32
2017-11-24T06:44:14.521Z,9.27
2017-11-24T06:46:42.390Z,8.57
2017-11-24T06:49:10.256Z,8.63
2017-11-24T06:51:38.123Z,14.48
2017-11-24T06:54:05.989Z,7.00
2017-11-24T06:56:33.858Z,15.50
2017-11-24T06:59:01.724Z,8.80
2017-11-24T07:01:29.595Z,11.55
2017-11-24T07:03:57.460Z,10.13
2017-11-24T07:06:25.325Z,7.30
2017-11-24T07:08:53.192Z,6.30
2017-11-24T07:11:21.061Z,6.60
2017-11-24T07:13:48.928Z,11.20
2017-11-24T07:16:16.795Z,11.07
2017-11-24T07:18:44.662Z,6.30
2017-11-24T07:21:12.530Z,8.30
2017-11-24T07:23:40.398Z,6.70
2017-11-24T07:26:08.286Z,11.48
2017-11-24T07:28:36.952Z,6.75
2017-11-24T07:31:04.818Z,10.68
2017-11-24T07:33:32.686Z,8.25
2017-11-24T07:36:00.559Z,9.63
2017-11-24T07:38:28.352Z,8.10
2017-11-24T07:40:57.005Z,15.10
2017-11-24T07:43:24.873Z,8.70
2017-11-24T07:45:52.739Z,10.20
2017-11-24T07:48:20.607Z,8.80
2017-11-24T07:50:48.474Z,14.07
2017-11-24T07:53:16.342Z,7.50
2017-11-24T07:55:44.211Z,9.35
2017-11-24T07:58:12.075Z,10.82
2017-11-24T08:00:39.944Z,13.45
2017-11-24T08:03:07.812Z,20.00
2017-11-24T08:05:35.678Z,6.65
2017-11-24T08:08:03.547Z,8.27
2017-11-24T08:10:31.414Z,9.95
2017-11-24T08:12:59.280Z,9.77
2017-11-24T08:15:27.152Z,6.62
2017-11-24T08:17:55.017Z,8.60
2017-11-24T08:20:22.882Z,7.00
2017-11-24T08:22:50.750Z,9.00
2017-11-24T08:25:18.617Z,6.20
2017-11-24T08:27:46.484Z,8.15
2017-11-24T08:30:14.352Z,8.05
2017-11-24T08:32:42.218Z,8.35
2017-11-24T08:35:10.086Z,12.85
2017-11-24T08:37:37.958Z,12.00
2017-11-24T08:40:05.821Z,11.05
2017-11-24T08:42:33.688Z,8.25
2017-11-24T08:45:01.558Z,7.72
2017-11-24T08:47:35.259Z,10.40
2017-11-24T08:50:03.126Z,12.27
2017-11-24T08:52:30.993Z,13.70
2017-11-24T08:54:58.861Z,8.98
2017-11-24T08:57:26.728Z,10.77
2017-11-24T08:59:54.596Z,11.55
2017-11-24T09:02:23.281Z,10.10
2017-11-24T09:04:51.148Z,9.13
2017-11-24T09:07:19.025Z,9.27
2017-11-24T09:09:46.892Z,11.73
2017-11-24T09:12:14.755Z,13.62
2017-11-24T09:14:42.622Z,9.52
2017-11-24T09:17:10.491Z,10.77
2017-11-24T09:19:38.358Z,6.03
2017-11-24T09:22:06.223Z,12.75
2017-11-24T09:24:34.090Z,8.18
2017-11-24T09:27:01.955Z,8.20
2017-11-24T09:29:29.824Z,12.75
2017-11-24T09:31:57.688Z,8.07
2017-11-24T09:34:25.557Z,8.35
2017-11-24T09:36:53.431Z,8.52
2017-11-24T09:39:21.292Z,7.00
2017-11-24T09:41:49.159Z,10.45
2017-11-24T09:44:17.026Z,10.05
2017-11-24T09:46:44.894Z,8.43
2017-11-24T09:49:12.754Z,10.10
2017-11-24T09:51:40.629Z,8.48
2017-11-24T09:54:08.496Z,9.27
2017-11-24T09:56:36.363Z,12.55
2017-11-24T09:59:04.229Z,7.50
2017-11-24T10:01:32.097Z,13.23
2017-11-24T10:03:59.965Z,6.07
2017-11-24T10:06:27.835Z,17.42
2017-11-24T10:08:55.699Z,7.87
2017-11-24T10:11:23.574Z,10.90
2017-11-24T10:13:51.434Z,7.15
2017-11-24T10:16:19.306Z,6.90
2017-11-24T10:18:47.168Z,9.10
2017-11-24T10:21:20.565Z,11.98
2017-11-24T10:23:48.434Z,7.78
2017-11-24T10:26:16.301Z,8.88
2017-11-24T10:28:44.168Z,8.30
2017-11-24T10:31:12.038Z,11.15
2017-11-24T10:33:39.903Z,10.23
2017-11-24T10:36:07.770Z,7.70
2017-11-24T10:38:35.637Z,11.23
2017-11-24T10:41:03.507Z,11.00
2017-11-24T10:43:31.372Z,8.60
2017-11-24T10:45:59.238Z,11.73
2017-11-24T10:48:28.215Z,13.55
2017-11-24T10:50:56.100Z,11.95
2017-11-24T10:53:23.968Z,9.18
2017-11-24T10:55:51.834Z,5.95
2017-11-24T10:58:19.704Z,8.45
2017-11-24T11:00:47.568Z,12.70
2017-11-24T11:03:15.436Z,8.35
2017-11-24T11:05:43.304Z,7.50
2017-11-24T11:08:11.171Z,7.03
2017-11-24T11:10:39.041Z,7.82
2017-11-24T11:13:06.906Z,7.07
2017-11-24T11:15:34.778Z,5.05
2017-11-24T11:18:02.643Z,5.80
2017-11-24T11:20:30.508Z,9.07
2017-11-24T11:22:58.376Z,6.28
2017-11-24T11:25:26.241Z,7.35
2017-11-24T11:27:54.111Z,7.60
2017-11-24T11:30:21.976Z,6.07
2017-11-24T11:32:49.844Z,9.57
2017-11-24T11:35:17.711Z,8.23
2017-11-24T11:37:45.578Z,6.20
2017-11-24T11:40:13.445Z,13.18
2017-11-24T11:42:41.316Z,7.32
2017-11-24T11:45:09.183Z,7.78
2017-11-24T11:47:37.049Z,5.70
2017-11-24T11:50:04.918Z,7.28
2017-11-24T11:52:32.785Z,7.07
2017-11-24T11:55:00.650Z,5.28
2017-11-24T11:57:28.517Z,5.93
2017-11-24T11:59:56.388Z,9.13
2017-11-24T12:02:24.253Z,9.30
2017-11-24T12:04:52.121Z,6.97
2017-11-24T12:07:19.987Z,7.55
2017-11-24T12:09:47.855Z,8.55
2017-11-24T12:12:15.722Z,7.82
2017-11-24T12:14:43.587Z,7.55
2017-11-24T12:17:11.455Z,5.93
2017-11-24T12:19:39.327Z,11.48
2017-11-24T12:22:07.194Z,7.55
2017-11-24T12:24:35.059Z,6.07
2017-11-24T12:27:02.926Z,7.22
2017-11-24T12:29:30.792Z,5.00
2017-11-24T12:31:58.664Z,9.10
2017-11-24T12:34:26.529Z,9.40
2017-11-24T12:36:54.397Z,5.35
2017-11-24T12:39:22.262Z,8.20
2017-11-24T12:41:50.129Z,7.35
2017-11-24T12:44:17.927Z,10.32
2017-11-24T12:46:46.481Z,5.15
2017-11-24T12:49:14.345Z,16.55
2017-11-24T12:51:42.212Z,12.23
2017-11-24T12:54:10.080Z,6.22
2017-11-24T12:56:37.948Z,8.35
2017-11-24T12:59:05.814Z,9.60
2017-11-24T13:01:33.682Z,5.25
2017-11-24T13:04:01.549Z,11.12
2017-11-24T13:06:29.416Z,5.80
2017-11-24T13:08:57.284Z,7.68
2017-11-24T13:11:25.151Z,6.10
2017-11-24T13:13:53.019Z,9.80
2017-11-24T13:16:20.885Z,7.45
2017-11-24T13:18:48.757Z,8.23
2017-11-24T13:21:16.620Z,7.35
2017-11-24T13:23:44.488Z,6.85
2017-11-24T13:26:12.354Z,8.65
2017-11-24T13:28:40.222Z,10.23
2017-11-24T13:31:08.089Z,5.28
2017-11-24T13:33:35.956Z,11.30
2017-11-24T13:36:03.830Z,8.30
2017-11-24T13:38:31.692Z,8.55
2017-11-24T13:40:59.560Z,6.65
2017-11-24T13:43:27.456Z,7.87
2017-11-24T13:45:56.113Z,10.00
2017-11-24T13:48:23.982Z,11.57
2017-11-24T13:50:51.847Z,7.10
2017-11-24T13:53:19.721Z,5.75
2017-11-24T13:55:47.583Z,9.88
2017-11-24T13:58:15.449Z,11.73
2017-11-24T14:00:43.317Z,11.73
2017-11-24T14:03:11.116Z,10.18
2017-11-24T14:05:39.700Z,7.30
2017-11-24T14:08:08.250Z,6.35
2017-11-24T14:10:36.119Z,14.32
2017-11-24T14:13:03.984Z,6.43
2017-11-24T14:15:31.852Z,10.45
2017-11-24T14:17:59.719Z,8.50
2017-11-24T14:20:27.586Z,8.48
2017-11-24T14:22:55.454Z,18.50
2017-11-24T14:25:23.321Z,6.37
2017-11-24T14:27:51.191Z,5.72
2017-11-24T14:30:19.058Z,7.40
2017-11-24T14:32:46.923Z,6.55
2017-11-24T14:35:14.789Z,12.68
2017-11-24T14:37:42.657Z,10.18
2017-11-24T14:40:10.528Z,9.73
2017-11-24T14:42:38.399Z,8.77
2017-11-24T14:45:06.259Z,8.15
2017-11-24T14:47:34.128Z,10.63
2017-11-24T14:50:01.995Z,7.35
2017-11-24T14:52:29.861Z,8.63
2017-11-24T14:54:57.728Z,7.43
2017-11-24T14:57:25.595Z,8.95
2017-11-24T14:59:53.463Z,10.35
2017-11-24T15:02:21.331Z,7.97
2017-11-24T15:04:49.198Z,9.98
2017-11-24T15:07:17.066Z,11.25
2017-11-24T15:09:44.932Z,8.02
2017-11-24T15:12:12.800Z,28.42
2017-11-24T15:14:40.669Z,14.52
2017-11-24T15:17:08.535Z,8.63
2017-11-24T15:19:36.403Z,12.23
2017-11-24T15:22:04.270Z,8.18
2017-11-24T15:24:32.139Z,7.03
2017-11-24T15:27:00.006Z,10.35
2017-11-24T15:29:27.872Z,8.30
2017-11-24T15:31:55.738Z,16.55
2017-11-24T15:34:23.606Z,5.80
2017-11-24T15:36:51.478Z,3.53
2017-11-24T15:39:19.354Z,6.15
2017-11-24T15:41:47.211Z,3.12
2017-11-24T15:44:15.077Z,4.20
2017-11-24T15:46:42.948Z,6.07
2017-11-24T15:49:10.813Z,5.07
2017-11-24T15:51:38.684Z,3.28
2017-11-24T15:54:06.548Z,3.12
2017-11-24T15:56:34.415Z,3.10
2017-11-24T15:59:02.281Z,1.98
2017-11-24T16:01:30.147Z,3.47
2017-11-24T16:03:58.013Z,2.20
2017-11-24T16:06:25.882Z,2.35
2017-11-24T16:08:53.749Z,1.83
2017-11-24T16:11:21.616Z,2.42
2017-11-24T16:13:49.484Z,2.25
2017-11-24T16:16:17.285Z,1.90
2017-11-24T16:18:45.935Z,1.85
2017-11-24T16:21:13.802Z,2.47
2017-11-24T16:23:41.676Z,1.55
2017-11-24T16:26:09.537Z,3.05
2017-11-24T16:28:37.404Z,2.95
2017-11-24T16:31:05.271Z,2.55
2017-11-24T16:33:33.142Z,3.35
2017-11-24T16:36:01.007Z,2.30
2017-11-24T16:38:28.874Z,3.55
2017-11-24T16:40:56.745Z,1.65
2017-11-24T16:43:24.612Z,6.18
2017-11-24T16:45:52.478Z,2.90
2017-11-24T16:48:20.345Z,4.03
2017-11-24T16:50:48.214Z,1.60
2017-11-24T16:53:16.078Z,2.50
2017-11-24T16:55:43.946Z,1.80
2017-11-24T16:58:11.818Z,3.05
2017-11-24T17:00:39.681Z,1.80
2017-11-24T17:03:07.547Z,3.15
2017-11-24T17:05:35.415Z,5.40
2017-11-24T17:08:03.387Z,8.63
2017-11-24T17:10:31.103Z,4.62
2017-11-24T17:12:59.020Z,4.78
2017-11-24T17:15:26.885Z,4.03
2017-11-24T17:17:54.654Z,6.07
2017-11-24T17:20:22.517Z,4.65
2017-11-24T17:22:50.386Z,3.60
2017-11-24T17:25:18.250Z,3.10
2017-11-24T17:27:46.118Z,4.93
2017-11-24T17:30:13.985Z,6.35
2017-11-24T17:32:41.861Z,5.55
2017-11-24T17:35:09.724Z,5.10
2017-11-24T17:37:37.587Z,5.15
2017-11-24T17:40:05.469Z,3.60
2017-11-24T17:42:33.323Z,6.90
2017-11-24T17:45:01.190Z,5.68
2017-11-24T17:47:29.057Z,4.95
2017-11-24T17:49:56.924Z,4.95
2017-11-24T17:52:24.791Z,6.70
2017-11-24T17:54:52.658Z,5.97
2017-11-24T17:57:20.526Z,8.45
2017-11-24T17:59:48.397Z,8.57
2017-11-24T18:02:16.262Z,5.65
2017-11-24T18:04:44.131Z,6.70
2017-11-24T18:07:11.995Z,8.80
2017-11-24T18:09:39.767Z,5.35
2017-11-24T18:12:07.628Z,6.85
2017-11-24T18:14:35.494Z,6.28
2017-11-24T18:17:03.363Z,5.32
2017-11-24T18:19:31.230Z,7.07
2017-11-24T18:21:59.096Z,4.90
2017-11-24T18:24:26.967Z,9.32
2017-11-24T18:26:54.832Z,9.63
2017-11-24T18:29:22.698Z,7.55
2017-11-24T18:31:50.565Z,7.75
2017-11-24T18:34:18.440Z,5.35
2017-11-24T18:36:46.301Z,8.10
2017-11-24T18:39:14.106Z,7.28
2017-11-24T18:41:42.035Z,10.30
2017-11-24T18:44:09.902Z,10.18
2017-11-24T18:46:37.769Z,11.12
2017-11-24T18:49:05.637Z,11.50
2017-11-24T18:51:36.112Z,9.80
2017-11-24T18:54:07.840Z,8.75
2017-11-24T18:56:36.615Z,13.45
2017-11-24T18:59:04.481Z,10.45
2017-11-24T19:01:34.586Z,8.23
2017-11-24T19:04:04.249Z,10.88
2017-11-24T19:06:32.179Z,9.70
2017-11-24T19:09:00.967Z,9.90
2017-11-24T19:11:28.835Z,7.75
2017-11-24T19:13:56.700Z,7.12
2017-11-24T19:16:24.567Z,7.72
2017-11-24T19:18:52.435Z,9.13
2017-11-24T19:21:20.306Z,6.93
2017-11-24T19:23:48.991Z,11.00
2017-11-24T19:26:16.855Z,10.45
2017-11-24T19:28:45.644Z,10.15
2017-11-24T19:31:13.512Z,8.68
2017-11-24T19:33:41.381Z,7.80
2017-11-24T19:36:09.250Z,7.50
2017-11-24T19:38:37.116Z,7.20
2017-11-24T19:41:04.983Z,12.13
2017-11-24T19:43:32.848Z,10.73
2017-11-24T19:46:00.716Z,8.07
2017-11-24T19:48:28.586Z,10.68
2017-11-24T19:50:56.450Z,8.98
2017-11-24T19:53:24.318Z,10.23
2017-11-24T19:55:52.184Z,12.80
2017-11-24T19:58:20.056Z,15.27
2017-11-24T20:00:47.919Z,15.07
2017-11-24T20:03:15.788Z,15.45
2017-11-24T20:05:43.656Z,21.25
2017-11-24T20:08:11.528Z,16.92
2017-11-24T20:10:39.390Z,22.80
2017-11-24T20:13:07.256Z,27.50
2017-11-24T20:15:35.122Z,19.33
2017-11-24T20:18:02.991Z,24.60
2017-11-24T20:20:30.857Z,19.50
2017-11-24T20:22:58.725Z,25.27
2017-11-24T20:25:26.593Z,23.90
2017-11-24T20:27:54.461Z,18.92
2017-11-24T20:30:22.330Z,20.67
2017-11-24T20:32:50.195Z,35.15
2017-11-24T20:35:18.064Z,24.90
2017-11-24T20:37:45.929Z,22.80
2017-11-24T20:40:13.797Z,23.45
2017-11-24T20:42:41.665Z,22.90
2017-11-24T20:45:09.532Z,19.48
2017-11-24T20:47:37.399Z,18.75
2017-11-24T20:50:05.265Z,25.60
2017-11-24T20:52:33.134Z,20.37
2017-11-24T20:55:01.000Z,21.67
2017-11-24T20:57:28.868Z,20.67
2017-11-24T20:59:56.734Z,17.50
2017-11-24T21:02:24.605Z,20.52
2017-11-24T21:04:52.470Z,18.77
2017-11-24T21:07:20.375Z,19.10
2017-11-24T21:09:49.024Z,18.90
2017-11-24T21:12:16.892Z,21.77
2017-11-24T21:14:44.759Z,20.08
2017-11-24T21:17:12.628Z,20.67
2017-11-24T21:19:40.492Z,22.35
2017-11-24T21:22:08.360Z,20.00
2017-11-24T21:24:36.229Z,18.80
2017-11-24T21:27:04.196Z,21.83
2017-11-24T21:29:32.070Z,17.90
2017-11-24T21:31:59.932Z,19.70
2017-11-24T21:34:27.805Z,17.23
2017-11-24T21:36:55.667Z,20.70
2017-11-24T21:39:23.548Z,17.95
2017-11-24T21:41:52.224Z,19.62
2017-11-24T21:44:20.089Z,22.02
2017-11-24T21:46:47.956Z,19.08
2017-11-24T21:49:15.823Z,26.27
2017-11-24T21:51:43.690Z,28.00
2017-11-24T21:54:11.558Z,20.75
2017-11-24T21:56:39.424Z,24.60
2017-11-24T21:59:07.295Z,33.38
2017-11-24T22:01:35.158Z,29.37
2017-11-24T22:04:03.027Z,28.38
2017-11-24T22:06:30.894Z,36.85
2017-11-24T22:08:58.769Z,30.05
2017-11-24T22:11:26.630Z,25.58
2017-11-24T22:13:54.506Z,27.55
2017-11-24T22:16:22.365Z,21.65
2017-11-24T22:18:50.542Z,23.00
2017-11-24T22:21:18.805Z,23.20
2017-11-24T22:23:46.690Z,21.45
2017-11-24T22:26:14.553Z,22.13
2017-11-24T22:28:42.421Z,23.58
2017-11-24T22:31:10.285Z,20.20
2017-11-24T22:33:38.048Z,20.88
2017-11-24T22:36:05.916Z,19.80
2017-11-24T22:38:33.784Z,28.87
2017-11-24T22:41:01.650Z,19.37
2017-11-24T22:43:29.517Z,22.48
2017-11-24T22:45:57.386Z,27.13
2017-11-24T22:48:25.254Z,30.65
2017-11-24T22:50:53.121Z,30.52
2017-11-24T22:53:20.991Z,30.80
2017-11-24T22:55:48.855Z,32.60
2017-11-24T22:58:16.722Z,31.40
2017-11-24T23:00:44.589Z,33.50
2017-11-24T23:03:12.457Z,27.45
2017-11-24T23:05:40.324Z,30.17
2017-11-24T23:08:08.192Z,25.00
2017-11-24T23:10:36.060Z,32.00
2017-11-24T23:13:03.925Z,35.70
2017-11-24T23:15:31.799Z,41.40
2017-11-24T23:17:59.663Z,33.95
2017-11-24T23:20:27.527Z,32.72
2017-11-24T23:22:55.395Z,34.10
2017-11-24T23:25:23.365Z,39.50
2017-11-24T23:27:51.233Z,33.97
2017-11-24T23:30:19.100Z,34.17
2017-11-24T23:32:46.966Z,27.15
2017-11-24T23:35:14.835Z,27.83
2017-11-24T23:37:42.702Z,27.33
2017-11-24T23:40:10.569Z,26.00
2017-11-24T23:42:38.436Z,27.05
2017-11-24T23:45:06.304Z,31.52
2017-11-24T23:47:34.171Z,26.62
2017-11-24T23:50:02.039Z,30.92
2017-11-24T23:52:29.907Z,25.42
2017-11-24T23:54:57.772Z,20.45
2017-11-24T23:57:25.641Z,24.15
2017-11-24T23:59:53.517Z,32.53
